createdAt,value
2017-10-14T00:00:21.992Z,0
2017-10-14T00:01:02.448Z,0
2017-10-14T00:01:42.887Z,0
2017-10-14T00:02:23.327Z,0
2017-10-14T00:03:03.788Z,0
2017-10-14T00:03:44.227Z,0
2017-10-14T00:04:24.678Z,0
2017-10-14T00:05:05.139Z,0
2017-10-14T00:05:45.582Z,0
2017-10-14T00:06:26.027Z,0
2017-10-14T00:07:06.476Z,0
2017-10-14T00:07:46.936Z,0
2017-10-14T00:08:27.402Z,0
2017-10-14T00:09:07.866Z,0
2017-10-14T00:09:48.306Z,0
2017-10-14T00:10:28.731Z,0
2017-10-14T00:11:09.194Z,0
2017-10-14T00:11:49.630Z,0
2017-10-14T00:12:30.097Z,0
2017-10-14T00:13:10.529Z,0
2017-10-14T00:13:50.976Z,0
2017-10-14T00:14:31.405Z,0
2017-10-14T00:15:11.839Z,0
2017-10-14T00:15:52.297Z,0
2017-10-14T00:16:32.758Z,0
2017-10-14T00:17:13.198Z,0
2017-10-14T00:17:53.651Z,0
2017-10-14T00:18:34.111Z,0
2017-10-14T00:19:14.552Z,0
2017-10-14T00:19:55.002Z,0
2017-10-14T00:20:35.459Z,0
2017-10-14T00:21:15.908Z,0
2017-10-14T00:21:56.358Z,0
2017-10-14T00:22:36.823Z,0
2017-10-14T00:23:17.281Z,0
2017-10-14T00:23:57.721Z,0
2017-10-14T00:24:38.136Z,0
2017-10-14T00:25:18.534Z,0
2017-10-14T00:25:59.014Z,0
2017-10-14T00:28:37.087Z,0
2017-10-14T00:29:17.541Z,0
2017-10-14T00:29:57.987Z,0
2017-10-14T00:30:38.451Z,0
2017-10-14T00:31:18.909Z,0
2017-10-14T00:31:59.368Z,0
2017-10-14T00:32:39.811Z,0
2017-10-14T00:33:20.427Z,0
2017-10-14T00:34:00.980Z,0
2017-10-14T00:34:41.389Z,0
2017-10-14T00:35:21.781Z,0
2017-10-14T00:36:02.232Z,0
2017-10-14T00:36:42.677Z,0
2017-10-14T00:37:23.127Z,0
2017-10-14T00:38:03.571Z,0
2017-10-14T00:38:44.001Z,0
2017-10-14T00:39:24.398Z,0
2017-10-14T00:40:04.815Z,0
2017-10-14T00:40:45.231Z,0
2017-10-14T00:41:25.658Z,0
2017-10-14T00:44:04.784Z,0
2017-10-14T00:44:45.273Z,0
2017-10-14T00:45:25.727Z,0
2017-10-14T00:46:06.169Z,0
2017-10-14T00:46:46.618Z,0
2017-10-14T00:47:27.060Z,0
2017-10-14T00:48:07.514Z,0
2017-10-14T00:48:47.968Z,0
2017-10-14T00:49:28.418Z,0
2017-10-14T00:50:08.861Z,0
2017-10-14T00:50:49.314Z,0
2017-10-14T00:51:29.762Z,0
2017-10-14T00:52:10.214Z,0
2017-10-14T00:52:50.657Z,0
2017-10-14T00:53:31.141Z,0
2017-10-14T00:54:11.585Z,0
2017-10-14T00:54:52.030Z,0
2017-10-14T00:55:32.469Z,0
2017-10-14T00:56:12.915Z,0
2017-10-14T00:56:53.538Z,0
2017-10-14T00:57:33.990Z,0
2017-10-14T00:58:14.448Z,0
2017-10-14T00:58:54.903Z,0
2017-10-14T00:59:35.534Z,0
2017-10-14T01:00:15.831Z,0
2017-10-14T01:00:56.277Z,0
2017-10-14T01:01:36.733Z,0
2017-10-14T01:02:17.182Z,0
2017-10-14T01:02:57.874Z,0
2017-10-14T01:03:38.332Z,0
2017-10-14T01:04:18.781Z,0
2017-10-14T01:04:59.230Z,0
2017-10-14T01:05:39.680Z,0
2017-10-14T01:06:20.138Z,0
2017-10-14T01:07:00.591Z,0
2017-10-14T01:07:41.081Z,0
2017-10-14T01:08:21.553Z,0
2017-10-14T01:09:02.000Z,0
2017-10-14T01:09:42.448Z,0
2017-10-14T01:10:22.907Z,0
2017-10-14T01:11:03.387Z,0
2017-10-14T01:11:43.846Z,0
2017-10-14T01:12:24.393Z,0
2017-10-14T01:13:04.752Z,0
2017-10-14T01:13:45.193Z,0
2017-10-14T01:14:25.650Z,0
2017-10-14T01:15:06.085Z,0
2017-10-14T01:15:46.538Z,0
2017-10-14T01:16:26.989Z,0
2017-10-14T01:17:07.441Z,0
2017-10-14T01:17:47.893Z,0
2017-10-14T01:18:28.345Z,0
2017-10-14T01:19:08.795Z,0
2017-10-14T01:19:49.239Z,0
2017-10-14T01:20:29.724Z,0
2017-10-14T01:21:10.163Z,0
2017-10-14T01:21:50.616Z,0
2017-10-14T01:22:31.555Z,0
2017-10-14T01:23:11.841Z,0
2017-10-14T01:23:52.469Z,0
2017-10-14T01:24:32.969Z,0
2017-10-14T01:25:13.423Z,0
2017-10-14T01:25:53.883Z,0
2017-10-14T01:26:34.344Z,0
2017-10-14T01:27:14.789Z,0
2017-10-14T01:27:55.245Z,0
2017-10-14T01:28:35.694Z,0
2017-10-14T01:29:16.643Z,0
2017-10-14T01:29:57.086Z,0
2017-10-14T01:30:37.539Z,0
2017-10-14T01:31:17.991Z,0
2017-10-14T01:31:58.438Z,0
2017-10-14T01:32:39.210Z,0
2017-10-14T01:33:19.666Z,0
2017-10-14T01:34:00.122Z,0
2017-10-14T01:34:40.573Z,0
2017-10-14T01:35:21.074Z,0
2017-10-14T01:36:01.532Z,0
2017-10-14T01:36:41.986Z,0
2017-10-14T01:37:22.439Z,0
2017-10-14T01:38:02.877Z,0
2017-10-14T01:38:43.340Z,0
2017-10-14T01:39:23.778Z,0
2017-10-14T01:40:04.223Z,0
2017-10-14T01:40:44.671Z,0
2017-10-14T01:41:25.139Z,0
2017-10-14T01:42:05.589Z,0
2017-10-14T01:42:46.050Z,0
2017-10-14T01:43:26.519Z,0
2017-10-14T01:44:06.980Z,0
2017-10-14T01:44:47.428Z,0
2017-10-14T01:45:27.875Z,0
2017-10-14T01:46:08.327Z,0
2017-10-14T01:46:48.773Z,0
2017-10-14T01:47:29.224Z,0
2017-10-14T01:48:09.675Z,0
2017-10-14T01:48:50.126Z,0
2017-10-14T01:49:30.582Z,0
2017-10-14T01:50:11.034Z,0
2017-10-14T01:52:44.089Z,0
2017-10-14T01:53:24.539Z,0
2017-10-14T01:54:04.993Z,0
2017-10-14T01:54:45.431Z,0
2017-10-14T01:55:25.870Z,0
2017-10-14T01:56:06.337Z,0
2017-10-14T01:56:46.774Z,0
2017-10-14T01:57:27.217Z,0
2017-10-14T01:58:07.670Z,0
2017-10-14T01:58:48.129Z,0
2017-10-14T01:59:28.583Z,0
2017-10-14T02:00:09.024Z,0
2017-10-14T02:00:49.481Z,0
2017-10-14T02:01:29.930Z,0
2017-10-14T02:02:10.377Z,0
2017-10-14T02:02:50.828Z,0
2017-10-14T02:03:31.280Z,0
2017-10-14T02:04:11.724Z,0
2017-10-14T02:04:52.192Z,0
2017-10-14T02:05:32.633Z,0
2017-10-14T02:06:13.077Z,0
2017-10-14T02:06:53.534Z,0
2017-10-14T02:07:33.985Z,0
2017-10-14T02:08:14.444Z,0
2017-10-14T02:08:54.906Z,0
2017-10-14T02:09:35.359Z,0
2017-10-14T02:10:15.819Z,0
2017-10-14T02:10:56.278Z,0
2017-10-14T02:11:36.735Z,0
2017-10-14T02:12:17.192Z,0
2017-10-14T02:12:57.647Z,0
2017-10-14T02:13:38.111Z,0
2017-10-14T02:14:18.552Z,0
2017-10-14T02:14:59.005Z,0
2017-10-14T02:15:39.439Z,0
2017-10-14T02:16:19.895Z,0
2017-10-14T02:17:00.344Z,0
2017-10-14T02:17:40.804Z,0
2017-10-14T02:18:21.259Z,0
2017-10-14T02:19:01.711Z,0
2017-10-14T02:19:42.165Z,0
2017-10-14T02:20:22.622Z,0
2017-10-14T02:21:03.076Z,0
2017-10-14T02:21:43.531Z,0
2017-10-14T02:22:23.991Z,0
2017-10-14T02:23:04.453Z,0
2017-10-14T02:23:44.901Z,0
2017-10-14T02:24:25.364Z,0
2017-10-14T02:25:05.818Z,0
2017-10-14T02:25:46.272Z,0
2017-10-14T02:26:26.724Z,0
2017-10-14T02:27:07.167Z,0
2017-10-14T02:27:47.616Z,0
2017-10-14T02:28:28.079Z,0
2017-10-14T02:29:08.521Z,0
2017-10-14T02:29:48.971Z,0
2017-10-14T02:32:22.015Z,0
2017-10-14T02:33:02.476Z,0
2017-10-14T02:33:42.907Z,0
2017-10-14T02:34:23.372Z,0
2017-10-14T02:35:03.827Z,0
2017-10-14T02:35:44.285Z,0
2017-10-14T02:36:24.726Z,0
2017-10-14T02:37:05.182Z,0
2017-10-14T02:37:45.640Z,0
2017-10-14T02:38:26.081Z,0
2017-10-14T02:39:06.533Z,0
2017-10-14T02:39:46.981Z,0
2017-10-14T02:40:27.415Z,0
2017-10-14T02:41:07.875Z,0
2017-10-14T02:41:48.311Z,0
2017-10-14T02:42:28.768Z,0
2017-10-14T02:43:09.218Z,0
2017-10-14T02:43:49.675Z,0
2017-10-14T02:44:30.127Z,0
2017-10-14T02:45:10.581Z,0
2017-10-14T02:45:51.034Z,0
2017-10-14T02:46:31.478Z,0
2017-10-14T02:47:11.927Z,0
2017-10-14T02:47:52.377Z,0
2017-10-14T02:48:32.824Z,0
2017-10-14T02:49:13.277Z,0
2017-10-14T02:49:53.705Z,0
2017-10-14T02:50:34.149Z,0
2017-10-14T02:51:14.615Z,0
2017-10-14T02:51:55.079Z,0
2017-10-14T02:52:35.532Z,0
2017-10-14T02:53:16.003Z,0
2017-10-14T02:53:56.435Z,0
2017-10-14T02:54:36.890Z,0
2017-10-14T02:55:17.348Z,0
2017-10-14T02:55:57.801Z,0
2017-10-14T02:56:38.249Z,0
2017-10-14T02:57:18.713Z,0
2017-10-14T02:57:59.171Z,0
2017-10-14T02:58:39.628Z,0
2017-10-14T02:59:20.075Z,0
2017-10-14T03:00:00.530Z,0
2017-10-14T03:00:40.975Z,0
2017-10-14T03:01:21.433Z,0
2017-10-14T03:02:01.870Z,0
2017-10-14T03:02:42.326Z,0
2017-10-14T03:03:22.798Z,0
2017-10-14T03:04:03.267Z,0
2017-10-14T03:04:43.717Z,0
2017-10-14T03:05:24.173Z,0
2017-10-14T03:06:04.640Z,0
2017-10-14T03:06:45.087Z,0
2017-10-14T03:07:25.541Z,0
2017-10-14T03:08:05.994Z,0
2017-10-14T03:08:46.444Z,0
2017-10-14T03:09:26.901Z,0
2017-10-14T03:10:07.361Z,0
2017-10-14T03:10:47.813Z,0
2017-10-14T03:11:28.273Z,0
2017-10-14T03:12:08.714Z,0
2017-10-14T03:12:49.157Z,0
2017-10-14T03:13:29.619Z,0
2017-10-14T03:14:10.070Z,0
2017-10-14T03:14:50.532Z,0
2017-10-14T03:15:30.994Z,0
2017-10-14T03:16:11.454Z,0
2017-10-14T03:16:51.900Z,0
2017-10-14T03:17:32.346Z,0
2017-10-14T03:18:12.800Z,0
2017-10-14T03:18:53.260Z,0
2017-10-14T03:19:33.731Z,0
2017-10-14T03:20:14.165Z,0
2017-10-14T03:20:54.624Z,0
2017-10-14T03:21:35.073Z,0
2017-10-14T03:22:15.519Z,0
2017-10-14T03:22:55.970Z,0
2017-10-14T03:23:36.430Z,0
2017-10-14T03:24:16.865Z,0
2017-10-14T03:24:57.314Z,0
2017-10-14T03:25:37.767Z,0
2017-10-14T03:26:18.215Z,0
2017-10-14T03:26:58.650Z,0
2017-10-14T03:27:39.116Z,0
2017-10-14T03:28:19.565Z,0
2017-10-14T03:29:00.015Z,0
2017-10-14T03:29:40.477Z,0
2017-10-14T03:30:20.932Z,0
2017-10-14T03:31:01.362Z,0
2017-10-14T03:31:41.823Z,0
2017-10-14T03:32:22.257Z,0
2017-10-14T03:33:02.704Z,0
2017-10-14T03:33:43.151Z,0
2017-10-14T03:34:23.594Z,0
2017-10-14T03:35:04.056Z,0
2017-10-14T03:35:44.516Z,0
2017-10-14T03:36:24.988Z,0
2017-10-14T03:37:05.441Z,0
2017-10-14T03:37:45.890Z,0
2017-10-14T03:38:26.348Z,0
2017-10-14T03:39:06.811Z,0
2017-10-14T03:39:47.265Z,0
2017-10-14T03:40:27.714Z,0
2017-10-14T03:41:08.166Z,0
2017-10-14T03:41:48.626Z,0
2017-10-14T03:42:29.058Z,0
2017-10-14T03:43:09.505Z,0
2017-10-14T03:43:49.957Z,0
2017-10-14T03:44:30.422Z,0
2017-10-14T03:45:10.867Z,0
2017-10-14T03:45:51.323Z,0
2017-10-14T03:46:31.766Z,0
2017-10-14T03:47:12.228Z,0
2017-10-14T03:47:52.682Z,0
2017-10-14T03:48:33.181Z,0
2017-10-14T03:49:13.593Z,0
2017-10-14T03:49:54.072Z,0
2017-10-14T03:50:34.510Z,0
2017-10-14T03:51:14.977Z,0
2017-10-14T03:51:55.415Z,0
2017-10-14T03:52:35.885Z,0
2017-10-14T03:53:16.320Z,0
2017-10-14T03:53:56.779Z,0
2017-10-14T03:56:09.457Z,0
2017-10-14T03:58:22.379Z,0
2017-10-14T03:59:03.105Z,0
2017-10-14T03:59:43.625Z,0
2017-10-14T04:00:24.235Z,0
2017-10-14T04:01:04.715Z,0
2017-10-14T04:01:45.142Z,0
2017-10-14T04:02:25.570Z,0
2017-10-14T04:03:06.026Z,0
2017-10-14T04:03:46.607Z,0
2017-10-14T04:04:26.899Z,0
2017-10-14T04:05:07.355Z,0
2017-10-14T04:05:47.801Z,0
2017-10-14T04:06:28.240Z,0
2017-10-14T04:07:08.717Z,0
2017-10-14T04:07:49.108Z,0
2017-10-14T04:08:29.528Z,0
2017-10-14T04:09:09.969Z,0
2017-10-14T04:09:50.338Z,0
2017-10-14T04:10:30.778Z,0
2017-10-14T04:11:11.311Z,0
2017-10-14T04:11:51.786Z,0
2017-10-14T04:12:32.217Z,0
2017-10-14T04:13:12.657Z,0
2017-10-14T04:13:53.133Z,0
2017-10-14T04:14:33.579Z,0
2017-10-14T04:15:14.090Z,0
2017-10-14T04:15:54.619Z,0
2017-10-14T04:16:35.119Z,0
2017-10-14T04:17:15.515Z,0
2017-10-14T04:17:55.963Z,0
2017-10-14T04:18:36.411Z,0
2017-10-14T04:19:16.867Z,0
2017-10-14T04:19:57.329Z,0
2017-10-14T04:20:37.787Z,0
2017-10-14T04:21:18.229Z,0
2017-10-14T04:21:58.671Z,0
2017-10-14T04:22:39.161Z,0
2017-10-14T04:23:19.778Z,0
2017-10-14T04:24:00.171Z,0
2017-10-14T04:24:40.598Z,0
2017-10-14T04:25:21.154Z,0
2017-10-14T04:26:02.366Z,0
2017-10-14T04:26:42.815Z,0
2017-10-14T04:27:23.309Z,0
2017-10-14T04:28:03.756Z,0
2017-10-14T04:28:44.212Z,0
2017-10-14T04:29:24.669Z,0
2017-10-14T04:30:05.199Z,0
2017-10-14T04:30:45.645Z,0
2017-10-14T04:31:26.090Z,0
2017-10-14T04:32:06.513Z,0
2017-10-14T04:32:46.962Z,0
2017-10-14T04:33:27.367Z,0
2017-10-14T04:34:07.811Z,0
2017-10-14T04:34:48.252Z,0
2017-10-14T04:35:28.673Z,0
2017-10-14T04:36:09.102Z,0
2017-10-14T04:36:49.528Z,0
2017-10-14T04:37:29.919Z,0
2017-10-14T04:38:10.330Z,0
2017-10-14T04:38:50.735Z,0
2017-10-14T04:39:31.180Z,0
2017-10-14T04:40:11.585Z,0
2017-10-14T04:40:52.003Z,0
2017-10-14T04:41:32.406Z,0
2017-10-14T04:42:12.860Z,0
2017-10-14T04:42:53.308Z,0
2017-10-14T04:43:33.724Z,0
2017-10-14T04:44:14.156Z,0
2017-10-14T04:44:54.543Z,0
2017-10-14T04:45:34.955Z,0
2017-10-14T04:46:15.351Z,0
2017-10-14T04:46:55.801Z,0
2017-10-14T04:47:36.180Z,0
2017-10-14T04:48:16.595Z,0
2017-10-14T04:48:56.995Z,0
2017-10-14T04:49:37.438Z,0
2017-10-14T04:50:17.849Z,0
2017-10-14T04:50:58.276Z,0
2017-10-14T04:51:38.703Z,0
2017-10-14T04:52:19.114Z,0
2017-10-14T04:52:59.530Z,0
2017-10-14T04:53:39.968Z,0
2017-10-14T04:54:20.405Z,0
2017-10-14T04:55:00.868Z,0
2017-10-14T04:55:41.315Z,0
2017-10-14T04:56:21.766Z,0
2017-10-14T04:57:02.220Z,0
2017-10-14T04:57:42.676Z,0
2017-10-14T04:58:23.146Z,0
2017-10-14T04:59:03.580Z,0
2017-10-14T04:59:44.042Z,0
2017-10-14T05:00:24.482Z,0
2017-10-14T05:01:04.963Z,0
2017-10-14T05:01:45.403Z,0
2017-10-14T05:02:25.944Z,0
2017-10-14T05:03:06.329Z,0
2017-10-14T05:03:47.211Z,0
2017-10-14T05:04:27.655Z,0
2017-10-14T05:05:08.101Z,0
2017-10-14T05:05:48.560Z,0
2017-10-14T05:06:29.036Z,0
2017-10-14T05:07:09.472Z,0
2017-10-14T05:07:49.929Z,0
2017-10-14T05:08:30.390Z,0
2017-10-14T05:09:10.854Z,0
2017-10-14T05:09:51.309Z,0
2017-10-14T05:10:31.763Z,0
2017-10-14T05:11:12.209Z,0
2017-10-14T05:11:52.647Z,0
2017-10-14T05:12:33.128Z,0
2017-10-14T05:13:13.572Z,0
2017-10-14T05:13:54.019Z,0
2017-10-14T05:14:34.463Z,0
2017-10-14T05:15:14.921Z,0
2017-10-14T05:15:55.373Z,0
2017-10-14T05:16:35.825Z,0
2017-10-14T05:17:16.280Z,0
2017-10-14T05:17:56.734Z,0
2017-10-14T05:18:37.186Z,0
2017-10-14T05:19:17.637Z,0
2017-10-14T05:19:58.091Z,0
2017-10-14T05:20:38.541Z,0
2017-10-14T05:21:18.992Z,0
2017-10-14T05:21:59.446Z,0
2017-10-14T05:22:39.899Z,0
2017-10-14T05:23:20.356Z,0
2017-10-14T05:24:00.815Z,0
2017-10-14T05:24:41.265Z,0
2017-10-14T05:25:21.709Z,0
2017-10-14T05:26:02.164Z,0
2017-10-14T05:26:42.629Z,0
2017-10-14T05:27:23.076Z,0
2017-10-14T05:28:03.539Z,0
2017-10-14T05:28:43.989Z,0
2017-10-14T05:29:24.444Z,0
2017-10-14T05:30:04.901Z,0
2017-10-14T05:30:45.344Z,0
2017-10-14T05:31:25.803Z,0
2017-10-14T05:32:06.244Z,0
2017-10-14T05:32:46.703Z,0
2017-10-14T05:33:27.156Z,0
2017-10-14T05:34:07.608Z,0
2017-10-14T05:34:48.058Z,0
2017-10-14T05:35:28.523Z,0
2017-10-14T05:37:47.416Z,0
2017-10-14T05:38:27.874Z,0
2017-10-14T05:39:08.321Z,0
2017-10-14T05:39:48.773Z,0
2017-10-14T05:40:29.226Z,0
2017-10-14T05:41:09.672Z,0
2017-10-14T05:41:50.125Z,0
2017-10-14T05:42:30.588Z,0
2017-10-14T05:43:11.035Z,0
2017-10-14T05:45:28.905Z,0
2017-10-14T05:46:09.365Z,0
2017-10-14T05:46:49.808Z,0
2017-10-14T05:47:30.280Z,0
2017-10-14T05:48:10.718Z,0
2017-10-14T05:48:51.176Z,0
2017-10-14T05:49:31.611Z,0
2017-10-14T05:50:12.055Z,0
2017-10-14T05:50:52.515Z,0
2017-10-14T05:51:32.964Z,0
2017-10-14T05:52:13.423Z,0
2017-10-14T05:52:53.877Z,0
2017-10-14T05:53:34.314Z,0
2017-10-14T05:54:14.756Z,0
2017-10-14T05:54:55.223Z,0
2017-10-14T05:55:35.654Z,0
2017-10-14T05:56:16.067Z,0
2017-10-14T05:56:56.508Z,0
2017-10-14T05:57:36.983Z,0
2017-10-14T05:58:17.439Z,0
2017-10-14T05:58:57.873Z,0
2017-10-14T06:01:11.677Z,0
2017-10-14T06:01:52.104Z,0
2017-10-14T06:02:32.534Z,0
2017-10-14T06:03:13.007Z,0
2017-10-14T06:03:53.471Z,0
2017-10-14T06:04:33.911Z,0
2017-10-14T06:05:14.626Z,0
2017-10-14T06:05:55.445Z,0
2017-10-14T06:06:36.002Z,0
2017-10-14T06:07:16.386Z,0
2017-10-14T06:07:56.789Z,0
2017-10-14T06:08:37.226Z,0
2017-10-14T06:09:17.604Z,0
2017-10-14T06:11:30.490Z,0
2017-10-14T06:12:10.938Z,0
2017-10-14T06:12:51.390Z,0
2017-10-14T06:13:31.821Z,0
2017-10-14T06:15:50.198Z,0
2017-10-14T06:16:31.265Z,0
2017-10-14T06:17:11.783Z,0
2017-10-14T06:17:52.235Z,0
2017-10-14T06:18:32.680Z,0
2017-10-14T06:19:13.133Z,0
2017-10-14T06:19:53.607Z,0
2017-10-14T06:20:34.050Z,0
2017-10-14T06:21:14.496Z,0
2017-10-14T06:21:54.941Z,0
2017-10-14T06:22:35.391Z,0
2017-10-14T06:23:15.845Z,0
2017-10-14T06:23:56.296Z,0
2017-10-14T06:24:36.748Z,0
2017-10-14T06:25:17.209Z,0
2017-10-14T06:25:57.658Z,0
2017-10-14T06:26:38.113Z,0
2017-10-14T06:27:18.569Z,0
2017-10-14T06:27:59.020Z,0
2017-10-14T06:28:39.485Z,0
2017-10-14T06:29:19.933Z,0
2017-10-14T06:30:00.394Z,0
2017-10-14T06:30:40.849Z,0
2017-10-14T06:31:21.306Z,0
2017-10-14T06:32:01.755Z,0
2017-10-14T06:32:42.203Z,0
2017-10-14T06:33:22.643Z,0
2017-10-14T06:34:03.091Z,0
2017-10-14T06:34:43.539Z,0
2017-10-14T06:35:23.990Z,0
2017-10-14T06:36:04.444Z,0
2017-10-14T06:36:44.897Z,0
2017-10-14T06:37:25.341Z,0
2017-10-14T06:38:05.804Z,0
2017-10-14T06:38:46.297Z,0
2017-10-14T06:39:26.759Z,0
2017-10-14T06:40:07.204Z,0
2017-10-14T06:40:47.660Z,0
2017-10-14T06:41:28.115Z,0
2017-10-14T06:42:08.577Z,0
2017-10-14T06:42:49.037Z,0
2017-10-14T06:43:29.516Z,0
2017-10-14T06:44:09.962Z,0
2017-10-14T06:44:50.427Z,0
2017-10-14T06:45:30.849Z,0
2017-10-14T06:46:11.313Z,0
2017-10-14T06:46:51.744Z,0
2017-10-14T06:47:32.193Z,0
2017-10-14T06:48:12.643Z,0
2017-10-14T06:48:53.098Z,0
2017-10-14T06:49:33.548Z,0
2017-10-14T06:50:13.981Z,0
2017-10-14T06:50:54.457Z,0
2017-10-14T06:51:34.926Z,0
2017-10-14T06:52:15.358Z,0
2017-10-14T06:52:55.825Z,0
2017-10-14T06:53:36.267Z,0
2017-10-14T06:54:16.739Z,0
2017-10-14T06:54:57.169Z,0
2017-10-14T06:55:37.618Z,0
2017-10-14T06:56:18.061Z,0
2017-10-14T06:56:58.523Z,10
2017-10-14T06:57:38.980Z,70
2017-10-14T06:58:19.438Z,75
2017-10-14T06:58:59.894Z,80
2017-10-14T06:59:40.373Z,85
2017-10-14T07:00:20.821Z,90
2017-10-14T07:01:01.264Z,45
2017-10-14T07:01:41.719Z,45
2017-10-14T07:02:22.162Z,50
2017-10-14T07:03:02.612Z,55
2017-10-14T07:03:43.065Z,55
2017-10-14T07:04:23.518Z,60
2017-10-14T07:05:03.971Z,70
2017-10-14T07:05:44.434Z,75
2017-10-14T07:06:24.891Z,75
2017-10-14T07:07:05.362Z,80
2017-10-14T07:07:45.832Z,80
2017-10-14T07:08:26.265Z,85
2017-10-14T07:09:06.716Z,85
2017-10-14T07:09:47.176Z,85
2017-10-14T07:10:27.635Z,90
2017-10-14T07:11:08.090Z,90
2017-10-14T07:11:48.539Z,90
2017-10-14T07:12:28.992Z,95
2017-10-14T07:13:09.440Z,95
2017-10-14T07:13:49.885Z,95
2017-10-14T07:14:30.331Z,85
2017-10-14T07:15:10.782Z,85
2017-10-14T07:15:51.365Z,85
2017-10-14T07:16:31.817Z,75
2017-10-14T07:17:12.278Z,75
2017-10-14T07:17:52.734Z,85
2017-10-14T07:18:34.024Z,85
2017-10-14T07:19:14.481Z,95
2017-10-14T07:19:54.941Z,95
2017-10-14T07:20:35.390Z,95
2017-10-14T07:21:15.843Z,105
2017-10-14T07:21:56.285Z,110
2017-10-14T07:22:36.738Z,115
2017-10-14T07:23:17.191Z,115
2017-10-14T07:23:57.632Z,120
2017-10-14T07:24:38.081Z,125
2017-10-14T07:25:18.558Z,125
2017-10-14T07:25:59.020Z,130
2017-10-14T07:26:39.432Z,130
2017-10-14T07:27:19.879Z,130
2017-10-14T07:28:00.334Z,130
2017-10-14T07:28:40.792Z,130
2017-10-14T07:29:21.242Z,130
2017-10-14T07:30:01.699Z,130
2017-10-14T07:30:42.153Z,130
2017-10-14T07:31:22.598Z,130
2017-10-14T07:32:03.053Z,135
2017-10-14T07:32:43.510Z,135
2017-10-14T07:33:23.992Z,135
2017-10-14T07:34:04.438Z,140
2017-10-14T07:34:44.900Z,140
2017-10-14T07:35:25.337Z,140
2017-10-14T07:36:05.794Z,140
2017-10-14T07:36:46.237Z,140
2017-10-14T07:37:26.714Z,140
2017-10-14T07:38:07.176Z,145
2017-10-14T07:38:47.803Z,145
2017-10-14T07:39:28.251Z,140
2017-10-14T07:40:08.692Z,140
2017-10-14T07:40:49.138Z,145
2017-10-14T07:41:29.590Z,145
2017-10-14T07:42:10.056Z,145
2017-10-14T07:42:50.544Z,145
2017-10-14T07:43:30.963Z,150
2017-10-14T07:44:11.418Z,150
2017-10-14T07:44:51.869Z,150
2017-10-14T07:45:32.326Z,155
2017-10-14T07:46:12.782Z,155
2017-10-14T07:46:53.242Z,155
2017-10-14T07:47:33.688Z,160
2017-10-14T07:48:14.159Z,155
2017-10-14T07:48:54.609Z,160
2017-10-14T07:49:35.059Z,160
2017-10-14T07:50:15.507Z,160
2017-10-14T07:50:56.051Z,165
2017-10-14T07:51:36.509Z,175
2017-10-14T07:52:16.961Z,180
2017-10-14T07:52:57.422Z,180
2017-10-14T07:53:37.872Z,170
2017-10-14T07:54:18.332Z,175
2017-10-14T07:54:58.769Z,175
2017-10-14T07:55:39.230Z,175
2017-10-14T07:56:19.684Z,175
2017-10-14T07:57:00.142Z,180
2017-10-14T07:57:40.601Z,180
2017-10-14T07:58:21.059Z,180
2017-10-14T07:59:01.516Z,185
2017-10-14T07:59:41.977Z,185
2017-10-14T08:00:22.422Z,185
2017-10-14T08:01:02.882Z,185
2017-10-14T08:01:43.889Z,185
2017-10-14T08:02:24.332Z,185
2017-10-14T08:03:04.819Z,190
2017-10-14T08:03:45.261Z,185
2017-10-14T08:04:25.719Z,185
2017-10-14T08:05:06.178Z,185
2017-10-14T08:05:46.627Z,180
2017-10-14T08:06:27.081Z,180
2017-10-14T08:07:07.538Z,175
2017-10-14T08:07:47.997Z,175
2017-10-14T08:08:28.455Z,175
2017-10-14T08:09:08.902Z,175
2017-10-14T08:09:49.358Z,170
2017-10-14T08:10:29.823Z,170
2017-10-14T08:11:10.272Z,175
2017-10-14T08:11:50.721Z,175
2017-10-14T08:12:31.177Z,175
2017-10-14T08:13:11.627Z,175
2017-10-14T08:13:52.083Z,175
2017-10-14T08:14:32.544Z,175
2017-10-14T08:15:12.998Z,175
2017-10-14T08:15:53.442Z,175
2017-10-14T08:16:33.897Z,175
2017-10-14T08:17:15.264Z,180
2017-10-14T08:17:55.760Z,175
2017-10-14T08:18:36.231Z,175
2017-10-14T08:19:16.652Z,180
2017-10-14T08:19:57.102Z,180
2017-10-14T08:20:37.550Z,180
2017-10-14T08:21:18.005Z,180
2017-10-14T08:21:58.461Z,180
2017-10-14T08:22:38.916Z,180
2017-10-14T08:23:19.376Z,180
2017-10-14T08:23:59.816Z,180
2017-10-14T08:24:40.265Z,180
2017-10-14T08:25:20.740Z,180
2017-10-14T08:26:01.167Z,180
2017-10-14T08:26:41.618Z,180
2017-10-14T08:27:22.081Z,180
2017-10-14T08:28:02.538Z,185
2017-10-14T08:28:42.991Z,185
2017-10-14T08:29:23.450Z,185
2017-10-14T08:30:03.919Z,185
2017-10-14T08:30:44.372Z,185
2017-10-14T08:31:24.821Z,185
2017-10-14T08:32:05.629Z,185
2017-10-14T08:32:46.388Z,185
2017-10-14T08:33:26.937Z,185
2017-10-14T08:34:07.401Z,185
2017-10-14T08:34:47.898Z,185
2017-10-14T08:35:28.350Z,185
2017-10-14T08:36:08.824Z,185
2017-10-14T08:36:49.844Z,185
2017-10-14T08:37:30.536Z,185
2017-10-14T08:38:11.308Z,190
2017-10-14T08:38:51.872Z,190
2017-10-14T08:39:32.299Z,190
2017-10-14T08:40:12.759Z,190
2017-10-14T08:40:53.214Z,190
2017-10-14T08:41:33.670Z,190
2017-10-14T08:42:14.131Z,190
2017-10-14T08:42:54.593Z,190
2017-10-14T08:43:35.053Z,190
2017-10-14T08:44:15.508Z,190
2017-10-14T08:44:55.978Z,195
2017-10-14T08:45:36.444Z,195
2017-10-14T08:46:16.907Z,195
2017-10-14T08:46:57.372Z,195
2017-10-14T08:47:37.835Z,195
2017-10-14T08:48:19.053Z,195
2017-10-14T08:48:58.763Z,195
2017-10-14T08:49:39.210Z,195
2017-10-14T08:50:19.677Z,195
2017-10-14T08:51:00.145Z,195
2017-10-14T08:51:40.610Z,195
2017-10-14T08:52:21.067Z,195
2017-10-14T08:53:01.535Z,195
2017-10-14T08:53:42.007Z,195
2017-10-14T08:54:22.461Z,200
2017-10-14T08:55:02.914Z,200
2017-10-14T08:55:43.381Z,200
2017-10-14T08:58:01.184Z,200
2017-10-14T08:58:41.634Z,200
2017-10-14T08:59:22.086Z,200
2017-10-14T09:00:02.541Z,200
2017-10-14T09:00:42.994Z,200
2017-10-14T09:01:23.446Z,200
2017-10-14T09:02:03.904Z,200
2017-10-14T09:02:44.359Z,200
2017-10-14T09:03:24.811Z,200
2017-10-14T09:04:05.266Z,200
2017-10-14T09:04:45.720Z,200
2017-10-14T09:05:26.175Z,200
2017-10-14T09:06:06.637Z,200
2017-10-14T09:06:47.091Z,200
2017-10-14T09:07:27.546Z,200
2017-10-14T09:08:08.005Z,200
2017-10-14T09:08:48.452Z,200
2017-10-14T09:09:28.908Z,200
2017-10-14T09:10:09.370Z,200
2017-10-14T09:10:49.839Z,200
2017-10-14T09:11:30.282Z,200
2017-10-14T09:12:10.733Z,205
2017-10-14T09:12:51.191Z,200
2017-10-14T09:13:31.649Z,200
2017-10-14T09:14:12.116Z,200
2017-10-14T09:14:52.569Z,200
2017-10-14T09:15:33.030Z,200
2017-10-14T09:16:13.483Z,200
2017-10-14T09:16:53.951Z,200
2017-10-14T09:17:34.424Z,200
2017-10-14T09:18:14.866Z,200
2017-10-14T09:18:55.325Z,200
2017-10-14T09:19:35.767Z,200
2017-10-14T09:20:16.234Z,200
2017-10-14T09:20:56.701Z,200
2017-10-14T09:21:37.167Z,200
2017-10-14T09:22:17.616Z,200
2017-10-14T09:22:58.077Z,200
2017-10-14T09:23:38.536Z,200
2017-10-14T09:24:18.981Z,200
2017-10-14T09:24:59.437Z,200
2017-10-14T09:25:39.879Z,200
2017-10-14T09:26:20.337Z,200
2017-10-14T09:27:00.787Z,200
2017-10-14T09:27:41.246Z,200
2017-10-14T09:28:21.702Z,200
2017-10-14T09:29:02.156Z,200
2017-10-14T09:29:42.615Z,200
2017-10-14T09:30:23.076Z,200
2017-10-14T09:31:03.567Z,200
2017-10-14T09:31:44.044Z,200
2017-10-14T09:32:24.487Z,200
2017-10-14T09:33:04.964Z,200
2017-10-14T09:33:45.406Z,200
2017-10-14T09:34:25.858Z,200
2017-10-14T09:35:06.315Z,200
2017-10-14T09:35:46.772Z,200
2017-10-14T09:36:27.231Z,200
2017-10-14T09:37:07.682Z,200
2017-10-14T09:37:48.135Z,200
2017-10-14T09:38:28.588Z,200
2017-10-14T09:39:09.042Z,200
2017-10-14T09:39:49.505Z,200
2017-10-14T09:40:29.959Z,200
2017-10-14T09:41:10.422Z,200
2017-10-14T09:41:50.885Z,200
2017-10-14T09:42:31.338Z,200
2017-10-14T09:43:11.802Z,205
2017-10-14T09:43:52.247Z,205
2017-10-14T09:44:32.706Z,205
2017-10-14T09:45:13.195Z,205
2017-10-14T09:45:53.647Z,200
2017-10-14T09:46:34.081Z,200
2017-10-14T09:47:14.581Z,200
2017-10-14T09:47:54.955Z,200
2017-10-14T09:48:35.392Z,205
2017-10-14T09:49:15.827Z,205
2017-10-14T09:49:56.280Z,205
2017-10-14T09:50:36.743Z,205
2017-10-14T09:51:17.189Z,205
2017-10-14T09:51:57.636Z,210
2017-10-14T09:52:38.091Z,210
2017-10-14T09:53:18.541Z,210
2017-10-14T09:53:58.998Z,210
2017-10-14T09:54:39.451Z,210
2017-10-14T09:55:19.901Z,210
2017-10-14T09:56:00.356Z,210
2017-10-14T09:56:40.802Z,205
2017-10-14T09:57:21.255Z,205
2017-10-14T09:58:01.710Z,205
2017-10-14T09:58:42.176Z,205
2017-10-14T09:59:22.636Z,205
2017-10-14T10:00:03.143Z,205
2017-10-14T10:00:43.593Z,210
2017-10-14T10:01:24.052Z,210
2017-10-14T10:02:04.522Z,205
2017-10-14T10:02:44.988Z,205
2017-10-14T10:03:25.449Z,205
2017-10-14T10:04:05.905Z,200
2017-10-14T10:04:46.362Z,200
2017-10-14T10:05:26.822Z,200